sensor_id;sensor_type;location;lat;lon;timestamp;temperature;humidity
28520;DHT22;15732;48.534;20.382;2022-12-16T00:00:07;1.80;99.90
28520;DHT22;15732;48.534;20.382;2022-12-16T00:02:35;1.80;99.90
28520;DHT22;15732;48.534;20.382;2022-12-16T00:05:03;1.70;99.90
28520;DHT22;15732;48.534;20.382;2022-12-16T00:07:30;1.80;99.90
28520;DHT22;15732;48.534;20.382;2022-12-16T00:10:01;1.80;99.90
28520;DHT22;15732;48.534;20.382;2022-12-16T00:12:28;1.80;99.90
28520;DHT22;15732;48.534;20.382;2022-12-16T00:14:55;1.80;99.90
28520;DHT22;15732;48.534;20.382;2022-12-16T00:17:23;1.80;99.90
28520;DHT22;15732;48.534;20.382;2022-12-16T00:19:50;1.80;99.90
28520;DHT22;15732;48.534;20.382;2022-12-16T00:22:17;1.80;99.90
28520;DHT22;15732;48.534;20.382;2022-12-16T00:24:44;1.80;99.90
28520;DHT22;15732;48.534;20.382;2022-12-16T00:27:12;1.80;99.90
28520;DHT22;15732;48.534;20.382;2022-12-16T00:29:39;1.90;99.90
28520;DHT22;15732;48.534;20.382;2022-12-16T00:32:06;1.80;99.90
28520;DHT22;15732;48.534;20.382;2022-12-16T00:34:38;1.90;99.90
28520;DHT22;15732;48.534;20.382;2022-12-16T00:37:05;1.90;99.90
28520;DHT22;15732;48.534;20.382;2022-12-16T00:39:32;1.90;99.90
28520;DHT22;15732;48.534;20.382;2022-12-16T00:42:00;1.90;99.90
28520;DHT22;15732;48.534;20.382;2022-12-16T00:44:27;1.90;99.90
28520;DHT22;15732;48.534;20.382;2022-12-16T00:46:54;2.00;99.90
28520;DHT22;15732;48.534;20.382;2022-12-16T00:49:22;2.00;99.90
28520;DHT22;15732;48.534;20.382;2022-12-16T00:51:49;2.00;99.90
28520;DHT22;15732;48.534;20.382;2022-12-16T00:54:20;2.00;99.90
28520;DHT22;15732;48.534;20.382;2022-12-16T00:56:48;1.90;99.90
28520;DHT22;15732;48.534;20.382;2022-12-16T00:59:16;1.90;99.90
28520;DHT22;15732;48.534;20.382;2022-12-16T01:01:43;1.90;99.90
28520;DHT22;15732;48.534;20.382;2022-12-16T01:04:10;2.00;99.90
28520;DHT22;15732;48.534;20.382;2022-12-16T01:06:38;2.00;99.90
28520;DHT22;15732;48.534;20.382;2022-12-16T01:09:09;2.00;99.90
28520;DHT22;15732;48.534;20.382;2022-12-16T01:11:36;2.00;99.90
28520;DHT22;15732;48.534;20.382;2022-12-16T01:14:03;2.00;99.90
28520;DHT22;15732;48.534;20.382;2022-12-16T01:16:30;2.00;99.90
28520;DHT22;15732;48.534;20.382;2022-12-16T01:18:58;2.10;99.90
28520;DHT22;15732;48.534;20.382;2022-12-16T01:21:29;2.10;99.90
28520;DHT22;15732;48.534;20.382;2022-12-16T01:23:56;2.10;99.90
28520;DHT22;15732;48.534;20.382;2022-12-16T01:26:24;2.10;99.90
28520;DHT22;15732;48.534;20.382;2022-12-16T01:28:51;2.10;99.90
28520;DHT22;15732;48.534;20.382;2022-12-16T01:31:19;2.20;99.90
28520;DHT22;15732;48.534;20.382;2022-12-16T01:33:46;2.20;99.90
28520;DHT22;15732;48.534;20.382;2022-12-16T01:36:13;2.20;99.90
28520;DHT22;15732;48.534;20.382;2022-12-16T01:38:42;2.20;99.90
28520;DHT22;15732;48.534;20.382;2022-12-16T01:41:12;2.20;99.90
28520;DHT22;15732;48.534;20.382;2022-12-16T01:43:40;2.20;99.90
28520;DHT22;15732;48.534;20.382;2022-12-16T01:48:59;2.20;99.90
28520;DHT22;15732;48.534;20.382;2022-12-16T01:51:40;2.30;99.90
28520;DHT22;15732;48.534;20.382;2022-12-16T01:54:17;2.30;99.90
28520;DHT22;15732;48.534;20.382;2022-12-16T01:56:50;2.30;99.90
28520;DHT22;15732;48.534;20.382;2022-12-16T01:59:22;2.30;99.90
28520;DHT22;15732;48.534;20.382;2022-12-16T02:01:52;2.30;99.90
28520;DHT22;15732;48.534;20.382;2022-12-16T02:04:19;2.30;99.90
28520;DHT22;15732;48.534;20.382;2022-12-16T02:06:46;2.30;99.90
28520;DHT22;15732;48.534;20.382;2022-12-16T02:09:15;2.20;99.90
28520;DHT22;15732;48.534;20.382;2022-12-16T02:23:14;2.10;99.90
28520;DHT22;15732;48.534;20.382;2022-12-16T02:31:33;2.10;99.90
28520;DHT22;15732;48.534;20.382;2022-12-16T02:37:19;2.00;99.90
28520;DHT22;15732;48.534;20.382;2022-12-16T02:40:00;2.00;99.90
28520;DHT22;15732;48.534;20.382;2022-12-16T02:42:59;2.00;99.90
28520;DHT22;15732;48.534;20.382;2022-12-16T02:45:30;2.00;99.90
28520;DHT22;15732;48.534;20.382;2022-12-16T02:48:01;2.00;99.90
28520;DHT22;15732;48.534;20.382;2022-12-16T02:50:48;2.00;99.90
28520;DHT22;15732;48.534;20.382;2022-12-16T02:53:17;1.90;99.90
28520;DHT22;15732;48.534;20.382;2022-12-16T02:56:07;2.00;99.90
28520;DHT22;15732;48.534;20.382;2022-12-16T02:58:46;2.00;99.90
28520;DHT22;15732;48.534;20.382;2022-12-16T03:04:09;2.00;99.90
28520;DHT22;15732;48.534;20.382;2022-12-16T03:06:44;2.10;99.90
28520;DHT22;15732;48.534;20.382;2022-12-16T03:09:16;2.10;99.90
28520;DHT22;15732;48.534;20.382;2022-12-16T03:11:45;2.10;99.90
28520;DHT22;15732;48.534;20.382;2022-12-16T03:14:15;2.00;99.90
28520;DHT22;15732;48.534;20.382;2022-12-16T03:16:45;2.10;99.90
28520;DHT22;15732;48.534;20.382;2022-12-16T03:19:12;2.00;99.90
28520;DHT22;15732;48.534;20.382;2022-12-16T03:21:46;2.00;99.90
28520;DHT22;15732;48.534;20.382;2022-12-16T03:24:16;2.00;99.90
28520;DHT22;15732;48.534;20.382;2022-12-16T03:27:07;2.00;99.90
28520;DHT22;15732;48.534;20.382;2022-12-16T03:32:26;2.10;99.90
28520;DHT22;15732;48.534;20.382;2022-12-16T03:37:50;2.10;99.90
28520;DHT22;15732;48.534;20.382;2022-12-16T03:40:18;2.10;99.90
28520;DHT22;15732;48.534;20.382;2022-12-16T03:42:47;2.10;99.90
28520;DHT22;15732;48.534;20.382;2022-12-16T03:45:25;2.10;99.90
28520;DHT22;15732;48.534;20.382;2022-12-16T03:47:56;2.10;99.90
28520;DHT22;15732;48.534;20.382;2022-12-16T03:50:27;2.20;99.90
28520;DHT22;15732;48.534;20.382;2022-12-16T03:52:54;2.20;99.90
28520;DHT22;15732;48.534;20.382;2022-12-16T03:55:22;2.20;99.90
28520;DHT22;15732;48.534;20.382;2022-12-16T03:57:49;2.20;99.90
28520;DHT22;15732;48.534;20.382;2022-12-16T04:00:17;2.20;99.90
28520;DHT22;15732;48.534;20.382;2022-12-16T04:02:44;2.20;99.90
28520;DHT22;15732;48.534;20.382;2022-12-16T04:05:11;2.20;99.90
28520;DHT22;15732;48.534;20.382;2022-12-16T04:07:39;2.20;99.90
28520;DHT22;15732;48.534;20.382;2022-12-16T04:10:06;2.20;99.90
28520;DHT22;15732;48.534;20.382;2022-12-16T04:12:33;2.20;99.90
28520;DHT22;15732;48.534;20.382;2022-12-16T04:15:18;2.20;99.90
28520;DHT22;15732;48.534;20.382;2022-12-16T04:18:07;2.20;99.90
28520;DHT22;15732;48.534;20.382;2022-12-16T04:20:55;2.30;99.90
28520;DHT22;15732;48.534;20.382;2022-12-16T04:24:06;2.20;99.90
28520;DHT22;15732;48.534;20.382;2022-12-16T04:26:46;2.20;99.90
28520;DHT22;15732;48.534;20.382;2022-12-16T04:29:32;2.30;99.90
28520;DHT22;15732;48.534;20.382;2022-12-16T04:32:00;2.30;99.90
28520;DHT22;15732;48.534;20.382;2022-12-16T04:34:27;2.30;99.90
28520;DHT22;15732;48.534;20.382;2022-12-16T04:37:00;2.30;99.90
28520;DHT22;15732;48.534;20.382;2022-12-16T04:39:45;2.30;99.90
28520;DHT22;15732;48.534;20.382;2022-12-16T04:42:31;2.30;99.90
28520;DHT22;15732;48.534;20.382;2022-12-16T04:45:16;2.30;99.90
28520;DHT22;15732;48.534;20.382;2022-12-16T04:48:02;2.40;99.90
28520;DHT22;15732;48.534;20.382;2022-12-16T04:51:07;2.30;99.90
28520;DHT22;15732;48.534;20.382;2022-12-16T04:53:52;2.30;99.90
28520;DHT22;15732;48.534;20.382;2022-12-16T04:56:38;2.30;99.90
28520;DHT22;15732;48.534;20.382;2022-12-16T04:59:23;2.40;99.90
28520;DHT22;15732;48.534;20.382;2022-12-16T05:02:08;2.40;99.90
28520;DHT22;15732;48.534;20.382;2022-12-16T05:04:54;2.40;99.90
28520;DHT22;15732;48.534;20.382;2022-12-16T05:07:39;2.40;99.90
28520;DHT22;15732;48.534;20.382;2022-12-16T05:10:25;2.40;99.90
28520;DHT22;15732;48.534;20.382;2022-12-16T05:13:10;2.50;99.90
28520;DHT22;15732;48.534;20.382;2022-12-16T05:15:55;2.50;99.90
28520;DHT22;15732;48.534;20.382;2022-12-16T05:18:41;2.50;99.90
28520;DHT22;15732;48.534;20.382;2022-12-16T05:21:26;2.50;99.90
28520;DHT22;15732;48.534;20.382;2022-12-16T05:24:12;2.50;99.90
28520;DHT22;15732;48.534;20.382;2022-12-16T05:26:57;2.50;99.90
28520;DHT22;15732;48.534;20.382;2022-12-16T05:29:43;2.60;99.90
28520;DHT22;15732;48.534;20.382;2022-12-16T05:32:28;2.60;99.90
28520;DHT22;15732;48.534;20.382;2022-12-16T05:35:26;2.60;99.90
28520;DHT22;15732;48.534;20.382;2022-12-16T05:38:11;2.50;99.90
28520;DHT22;15732;48.534;20.382;2022-12-16T05:40:57;2.50;99.90
28520;DHT22;15732;48.534;20.382;2022-12-16T05:43:42;2.40;99.90
28520;DHT22;15732;48.534;20.382;2022-12-16T05:46:28;2.40;99.90
28520;DHT22;15732;48.534;20.382;2022-12-16T05:49:13;2.40;99.90
28520;DHT22;15732;48.534;20.382;2022-12-16T05:51:59;2.40;99.90
28520;DHT22;15732;48.534;20.382;2022-12-16T05:54:44;2.40;99.90
28520;DHT22;15732;48.534;20.382;2022-12-16T05:57:30;2.50;99.90
28520;DHT22;15732;48.534;20.382;2022-12-16T06:00:15;2.50;99.90
28520;DHT22;15732;48.534;20.382;2022-12-16T06:03:01;2.50;99.90
28520;DHT22;15732;48.534;20.382;2022-12-16T06:05:46;2.40;99.90
28520;DHT22;15732;48.534;20.382;2022-12-16T06:08:32;2.40;99.90
28520;DHT22;15732;48.534;20.382;2022-12-16T06:11:17;2.40;99.90
28520;DHT22;15732;48.534;20.382;2022-12-16T06:14:03;2.40;99.90
28520;DHT22;15732;48.534;20.382;2022-12-16T06:16:48;2.40;99.90
28520;DHT22;15732;48.534;20.382;2022-12-16T06:19:34;2.40;99.90
28520;DHT22;15732;48.534;20.382;2022-12-16T06:22:19;2.40;99.90
28520;DHT22;15732;48.534;20.382;2022-12-16T06:25:05;2.40;99.90
28520;DHT22;15732;48.534;20.382;2022-12-16T06:27:51;2.40;99.90
28520;DHT22;15732;48.534;20.382;2022-12-16T06:30:37;2.30;99.90
28520;DHT22;15732;48.534;20.382;2022-12-16T06:33:23;2.30;99.90
28520;DHT22;15732;48.534;20.382;2022-12-16T06:36:08;2.30;99.90
28520;DHT22;15732;48.534;20.382;2022-12-16T06:38:53;2.30;99.90
28520;DHT22;15732;48.534;20.382;2022-12-16T06:41:39;2.30;99.90
28520;DHT22;15732;48.534;20.382;2022-12-16T06:44:23;2.20;99.90
28520;DHT22;15732;48.534;20.382;2022-12-16T06:47:09;2.20;99.90
28520;DHT22;15732;48.534;20.382;2022-12-16T06:49:54;2.30;99.90
28520;DHT22;15732;48.534;20.382;2022-12-16T06:52:43;2.30;99.90
28520;DHT22;15732;48.534;20.382;2022-12-16T06:55:28;2.40;99.90
28520;DHT22;15732;48.534;20.382;2022-12-16T06:58:13;2.40;99.90
28520;DHT22;15732;48.534;20.382;2022-12-16T07:00:58;2.50;99.90
28520;DHT22;15732;48.534;20.382;2022-12-16T07:03:44;2.50;99.90
28520;DHT22;15732;48.534;20.382;2022-12-16T07:06:29;2.50;99.90
28520;DHT22;15732;48.534;20.382;2022-12-16T07:09:15;2.50;99.90
28520;DHT22;15732;48.534;20.382;2022-12-16T07:12:00;2.60;99.90
28520;DHT22;15732;48.534;20.382;2022-12-16T07:14:45;2.50;99.90
28520;DHT22;15732;48.534;20.382;2022-12-16T07:17:31;2.60;99.90
28520;DHT22;15732;48.534;20.382;2022-12-16T07:20:16;2.60;99.90
28520;DHT22;15732;48.534;20.382;2022-12-16T07:23:02;2.60;99.90
28520;DHT22;15732;48.534;20.382;2022-12-16T07:25:48;2.60;99.90
28520;DHT22;15732;48.534;20.382;2022-12-16T07:28:34;2.60;99.90
28520;DHT22;15732;48.534;20.382;2022-12-16T07:31:20;2.60;99.90
28520;DHT22;15732;48.534;20.382;2022-12-16T07:34:05;2.70;99.90
28520;DHT22;15732;48.534;20.382;2022-12-16T07:36:50;2.70;99.90
28520;DHT22;15732;48.534;20.382;2022-12-16T07:39:35;2.70;99.90
28520;DHT22;15732;48.534;20.382;2022-12-16T07:42:21;2.80;99.90
28520;DHT22;15732;48.534;20.382;2022-12-16T07:45:08;2.80;99.90
28520;DHT22;15732;48.534;20.382;2022-12-16T07:47:53;2.80;99.90
28520;DHT22;15732;48.534;20.382;2022-12-16T07:50:40;2.80;99.90
28520;DHT22;15732;48.534;20.382;2022-12-16T07:53:25;2.80;99.90
28520;DHT22;15732;48.534;20.382;2022-12-16T07:56:10;2.80;99.90
28520;DHT22;15732;48.534;20.382;2022-12-16T07:58:54;2.80;99.90
28520;DHT22;15732;48.534;20.382;2022-12-16T08:01:40;2.80;99.90
28520;DHT22;15732;48.534;20.382;2022-12-16T08:04:24;2.80;99.90
28520;DHT22;15732;48.534;20.382;2022-12-16T08:07:10;2.80;99.90
28520;DHT22;15732;48.534;20.382;2022-12-16T08:09:55;2.90;99.90
28520;DHT22;15732;48.534;20.382;2022-12-16T08:12:41;2.90;99.90
28520;DHT22;15732;48.534;20.382;2022-12-16T08:15:26;2.90;99.90
28520;DHT22;15732;48.534;20.382;2022-12-16T08:18:11;2.90;99.90
28520;DHT22;15732;48.534;20.382;2022-12-16T08:20:56;2.90;99.90
28520;DHT22;15732;48.534;20.382;2022-12-16T08:23:42;2.90;99.90
28520;DHT22;15732;48.534;20.382;2022-12-16T08:26:26;2.90;99.90
28520;DHT22;15732;48.534;20.382;2022-12-16T08:29:12;2.80;99.90
28520;DHT22;15732;48.534;20.382;2022-12-16T08:31:58;2.90;99.90
28520;DHT22;15732;48.534;20.382;2022-12-16T08:34:46;2.90;99.90
28520;DHT22;15732;48.534;20.382;2022-12-16T08:37:32;2.80;99.90
28520;DHT22;15732;48.534;20.382;2022-12-16T08:40:18;2.80;99.90
28520;DHT22;15732;48.534;20.382;2022-12-16T08:43:03;2.80;99.90
28520;DHT22;15732;48.534;20.382;2022-12-16T08:45:52;2.70;99.90
28520;DHT22;15732;48.534;20.382;2022-12-16T08:48:37;2.70;99.90
28520;DHT22;15732;48.534;20.382;2022-12-16T08:51:22;2.60;99.90
28520;DHT22;15732;48.534;20.382;2022-12-16T08:54:07;2.60;99.90
28520;DHT22;15732;48.534;20.382;2022-12-16T08:56:53;2.60;99.90
28520;DHT22;15732;48.534;20.382;2022-12-16T08:59:38;2.60;99.90
28520;DHT22;15732;48.534;20.382;2022-12-16T09:02:40;2.50;99.90
28520;DHT22;15732;48.534;20.382;2022-12-16T09:05:26;2.50;99.90
28520;DHT22;15732;48.534;20.382;2022-12-16T09:08:12;2.50;99.90
28520;DHT22;15732;48.534;20.382;2022-12-16T09:11:01;2.50;99.90
28520;DHT22;15732;48.534;20.382;2022-12-16T09:13:45;2.60;99.90
28520;DHT22;15732;48.534;20.382;2022-12-16T09:16:31;2.60;99.90
28520;DHT22;15732;48.534;20.382;2022-12-16T09:19:16;2.60;99.90
28520;DHT22;15732;48.534;20.382;2022-12-16T09:22:02;2.70;99.90
28520;DHT22;15732;48.534;20.382;2022-12-16T09:24:47;2.70;99.90
28520;DHT22;15732;48.534;20.382;2022-12-16T09:27:33;2.70;99.90
28520;DHT22;15732;48.534;20.382;2022-12-16T09:30:18;2.80;99.90
28520;DHT22;15732;48.534;20.382;2022-12-16T09:33:04;2.80;99.90
28520;DHT22;15732;48.534;20.382;2022-12-16T09:35:49;2.80;99.90
28520;DHT22;15732;48.534;20.382;2022-12-16T09:38:34;2.90;99.90
28520;DHT22;15732;48.534;20.382;2022-12-16T09:50:25;3.00;99.90
28520;DHT22;15732;48.534;20.382;2022-12-16T09:53:12;3.00;99.90
28520;DHT22;15732;48.534;20.382;2022-12-16T09:55:58;3.00;99.90
28520;DHT22;15732;48.534;20.382;2022-12-16T09:58:56;2.90;99.90
28520;DHT22;15732;48.534;20.382;2022-12-16T10:01:42;2.90;99.90
28520;DHT22;15732;48.534;20.382;2022-12-16T10:04:27;2.90;99.90
28520;DHT22;15732;48.534;20.382;2022-12-16T10:07:17;2.90;99.90
28520;DHT22;15732;48.534;20.382;2022-12-16T10:13:22;2.90;99.90
28520;DHT22;15732;48.534;20.382;2022-12-16T10:16:48;2.90;99.90
28520;DHT22;15732;48.534;20.382;2022-12-16T10:25:50;2.90;99.90
28520;DHT22;15732;48.534;20.382;2022-12-16T10:28:47;2.90;99.90
28520;DHT22;15732;48.534;20.382;2022-12-16T10:31:36;2.90;99.90
28520;DHT22;15732;48.534;20.382;2022-12-16T10:34:29;3.00;99.90
28520;DHT22;15732;48.534;20.382;2022-12-16T10:40:20;3.00;99.90
28520;DHT22;15732;48.534;20.382;2022-12-16T10:43:15;3.00;99.90
28520;DHT22;15732;48.534;20.382;2022-12-16T10:46:08;3.00;99.90
28520;DHT22;15732;48.534;20.382;2022-12-16T10:48:56;3.00;99.90
28520;DHT22;15732;48.534;20.382;2022-12-16T10:51:41;2.90;99.90
28520;DHT22;15732;48.534;20.382;2022-12-16T10:54:34;2.90;99.90
28520;DHT22;15732;48.534;20.382;2022-12-16T10:57:54;2.80;99.90
28520;DHT22;15732;48.534;20.382;2022-12-16T11:03:32;2.80;99.90
28520;DHT22;15732;48.534;20.382;2022-12-16T11:06:38;2.70;99.90
28520;DHT22;15732;48.534;20.382;2022-12-16T11:09:28;2.80;99.90
28520;DHT22;15732;48.534;20.382;2022-12-16T11:12:20;2.80;99.90
28520;DHT22;15732;48.534;20.382;2022-12-16T11:18:09;2.90;99.90
28520;DHT22;15732;48.534;20.382;2022-12-16T11:21:13;3.00;99.90
28520;DHT22;15732;48.534;20.382;2022-12-16T11:26:57;3.00;99.90
28520;DHT22;15732;48.534;20.382;2022-12-16T11:30:16;3.00;99.90
28520;DHT22;15732;48.534;20.382;2022-12-16T11:33:20;3.00;99.90
28520;DHT22;15732;48.534;20.382;2022-12-16T11:36:17;2.90;99.90
28520;DHT22;15732;48.534;20.382;2022-12-16T11:39:04;2.90;99.90
28520;DHT22;15732;48.534;20.382;2022-12-16T11:41:54;2.80;99.90
28520;DHT22;15732;48.534;20.382;2022-12-16T11:44:50;2.80;99.90
28520;DHT22;15732;48.534;20.382;2022-12-16T11:50:37;2.80;99.90
28520;DHT22;15732;48.534;20.382;2022-12-16T11:53:47;2.80;99.90
28520;DHT22;15732;48.534;20.382;2022-12-16T11:56:36;2.90;99.90
28520;DHT22;15732;48.534;20.382;2022-12-16T11:59:49;2.80;99.90
28520;DHT22;15732;48.534;20.382;2022-12-16T12:03:00;2.80;99.90
28520;DHT22;15732;48.534;20.382;2022-12-16T12:09:08;2.80;99.90
28520;DHT22;15732;48.534;20.382;2022-12-16T12:11:55;2.80;99.90
28520;DHT22;15732;48.534;20.382;2022-12-16T12:15:00;2.90;99.90
28520;DHT22;15732;48.534;20.382;2022-12-16T12:21:34;2.90;99.90
28520;DHT22;15732;48.534;20.382;2022-12-16T12:27:32;2.90;99.90
28520;DHT22;15732;48.534;20.382;2022-12-16T12:30:20;2.90;99.90
28520;DHT22;15732;48.534;20.382;2022-12-16T12:39:51;3.00;99.90
28520;DHT22;15732;48.534;20.382;2022-12-16T12:42:50;3.00;99.90
28520;DHT22;15732;48.534;20.382;2022-12-16T12:48:42;3.10;99.90
28520;DHT22;15732;48.534;20.382;2022-12-16T12:51:35;3.10;99.90
28520;DHT22;15732;48.534;20.382;2022-12-16T12:54:35;3.10;99.90
28520;DHT22;15732;48.534;20.382;2022-12-16T12:57:26;3.10;99.90
28520;DHT22;15732;48.534;20.382;2022-12-16T13:06:20;3.20;99.90
28520;DHT22;15732;48.534;20.382;2022-12-16T13:09:41;3.20;99.90
28520;DHT22;15732;48.534;20.382;2022-12-16T13:12:31;3.20;99.90
28520;DHT22;15732;48.534;20.382;2022-12-16T13:15:42;3.30;99.90
28520;DHT22;15732;48.534;20.382;2022-12-16T13:18:31;3.30;99.90
28520;DHT22;15732;48.534;20.382;2022-12-16T13:24:49;3.30;99.90
28520;DHT22;15732;48.534;20.382;2022-12-16T13:28:03;3.30;99.90
28520;DHT22;15732;48.534;20.382;2022-12-16T13:31:07;3.40;99.90
28520;DHT22;15732;48.534;20.382;2022-12-16T13:33:54;3.40;99.90
28520;DHT22;15732;48.534;20.382;2022-12-16T13:36:41;3.40;99.90
28520;DHT22;15732;48.534;20.382;2022-12-16T13:39:29;3.40;99.90
28520;DHT22;15732;48.534;20.382;2022-12-16T13:42:47;3.40;99.90
28520;DHT22;15732;48.534;20.382;2022-12-16T13:46:11;3.40;99.90
28520;DHT22;15732;48.534;20.382;2022-12-16T13:48:49;3.40;99.90
28520;DHT22;15732;48.534;20.382;2022-12-16T13:57:21;3.40;99.90
28520;DHT22;15732;48.534;20.382;2022-12-16T14:00:18;3.40;99.90
28520;DHT22;15732;48.534;20.382;2022-12-16T14:03:10;3.40;99.90
28520;DHT22;15732;48.534;20.382;2022-12-16T14:05:57;3.40;99.90
28520;DHT22;15732;48.534;20.382;2022-12-16T14:08:43;3.40;99.90
28520;DHT22;15732;48.534;20.382;2022-12-16T14:11:46;3.40;99.90
28520;DHT22;15732;48.534;20.382;2022-12-16T14:14:47;3.40;99.90
28520;DHT22;15732;48.534;20.382;2022-12-16T14:18:02;3.40;99.90
28520;DHT22;15732;48.534;20.382;2022-12-16T14:20:57;3.40;99.90
28520;DHT22;15732;48.534;20.382;2022-12-16T14:23:52;3.40;99.90
28520;DHT22;15732;48.534;20.382;2022-12-16T14:26:39;3.40;99.90
28520;DHT22;15732;48.534;20.382;2022-12-16T14:29:30;3.40;99.90
28520;DHT22;15732;48.534;20.382;2022-12-16T14:32:20;3.40;99.90
28520;DHT22;15732;48.534;20.382;2022-12-16T14:35:11;3.40;99.90
28520;DHT22;15732;48.534;20.382;2022-12-16T14:37:57;3.40;99.90
28520;DHT22;15732;48.534;20.382;2022-12-16T14:40:42;3.40;99.90
28520;DHT22;15732;48.534;20.382;2022-12-16T14:43:34;3.40;99.90
28520;DHT22;15732;48.534;20.382;2022-12-16T14:46:27;3.40;99.90
28520;DHT22;15732;48.534;20.382;2022-12-16T14:49:23;3.40;99.90
28520;DHT22;15732;48.534;20.382;2022-12-16T14:52:26;3.30;99.90
28520;DHT22;15732;48.534;20.382;2022-12-16T14:55:18;3.30;99.90
28520;DHT22;15732;48.534;20.382;2022-12-16T14:58:09;3.30;99.90
28520;DHT22;15732;48.534;20.382;2022-12-16T15:01:01;3.30;99.90
28520;DHT22;15732;48.534;20.382;2022-12-16T15:03:48;3.30;99.90
28520;DHT22;15732;48.534;20.382;2022-12-16T15:06:38;3.30;99.90
28520;DHT22;15732;48.534;20.382;2022-12-16T15:09:33;3.30;99.90
28520;DHT22;15732;48.534;20.382;2022-12-16T15:12:21;3.30;99.90
28520;DHT22;15732;48.534;20.382;2022-12-16T15:15:21;3.30;99.90
28520;DHT22;15732;48.534;20.382;2022-12-16T15:18:18;3.30;99.90
28520;DHT22;15732;48.534;20.382;2022-12-16T15:21:06;3.30;99.90
28520;DHT22;15732;48.534;20.382;2022-12-16T15:23:52;3.30;99.90
28520;DHT22;15732;48.534;20.382;2022-12-16T15:26:37;3.30;99.90
28520;DHT22;15732;48.534;20.382;2022-12-16T15:29:33;3.30;99.90
28520;DHT22;15732;48.534;20.382;2022-12-16T15:32:32;3.30;99.90
28520;DHT22;15732;48.534;20.382;2022-12-16T15:40:59;3.30;99.90
28520;DHT22;15732;48.534;20.382;2022-12-16T15:43:45;3.30;99.90
28520;DHT22;15732;48.534;20.382;2022-12-16T15:46:31;3.30;99.90
28520;DHT22;15732;48.534;20.382;2022-12-16T15:49:37;3.30;99.90
28520;DHT22;15732;48.534;20.382;2022-12-16T15:55:40;3.30;99.90
28520;DHT22;15732;48.534;20.382;2022-12-16T16:01:10;3.20;99.90
28520;DHT22;15732;48.534;20.382;2022-12-16T16:03:56;3.20;99.90
28520;DHT22;15732;48.534;20.382;2022-12-16T16:07:07;3.10;99.90
28520;DHT22;15732;48.534;20.382;2022-12-16T16:10:13;3.10;99.90
28520;DHT22;15732;48.534;20.382;2022-12-16T16:13:00;3.10;99.90
28520;DHT22;15732;48.534;20.382;2022-12-16T16:15:45;3.00;99.90
28520;DHT22;15732;48.534;20.382;2022-12-16T16:18:30;3.00;99.90
28520;DHT22;15732;48.534;20.382;2022-12-16T16:21:16;3.00;99.90
28520;DHT22;15732;48.534;20.382;2022-12-16T16:24:01;3.10;99.90
28520;DHT22;15732;48.534;20.382;2022-12-16T16:26:47;3.00;99.90
28520;DHT22;15732;48.534;20.382;2022-12-16T16:29:32;3.00;99.90
28520;DHT22;15732;48.534;20.382;2022-12-16T16:32:17;3.00;99.90
28520;DHT22;15732;48.534;20.382;2022-12-16T16:35:04;2.90;99.90
28520;DHT22;15732;48.534;20.382;2022-12-16T16:37:50;2.90;99.90
28520;DHT22;15732;48.534;20.382;2022-12-16T16:40:37;3.00;99.90
28520;DHT22;15732;48.534;20.382;2022-12-16T16:43:27;3.00;99.90
28520;DHT22;15732;48.534;20.382;2022-12-16T16:49:20;3.10;99.90
28520;DHT22;15732;48.534;20.382;2022-12-16T16:52:07;3.10;99.90
28520;DHT22;15732;48.534;20.382;2022-12-16T16:54:53;3.10;99.90
28520;DHT22;15732;48.534;20.382;2022-12-16T16:57:38;3.20;99.90
28520;DHT22;15732;48.534;20.382;2022-12-16T17:00:23;3.20;99.90
28520;DHT22;15732;48.534;20.382;2022-12-16T17:03:07;3.20;99.90
28520;DHT22;15732;48.534;20.382;2022-12-16T17:05:52;3.20;99.90
28520;DHT22;15732;48.534;20.382;2022-12-16T17:08:38;3.20;99.90
28520;DHT22;15732;48.534;20.382;2022-12-16T17:11:23;3.20;99.90
28520;DHT22;15732;48.534;20.382;2022-12-16T17:14:16;3.20;99.90
28520;DHT22;15732;48.534;20.382;2022-12-16T17:17:01;3.20;99.90
28520;DHT22;15732;48.534;20.382;2022-12-16T17:19:46;3.20;99.90
28520;DHT22;15732;48.534;20.382;2022-12-16T17:22:31;3.20;99.90
28520;DHT22;15732;48.534;20.382;2022-12-16T17:25:17;3.20;99.90
28520;DHT22;15732;48.534;20.382;2022-12-16T17:28:02;3.20;99.90
28520;DHT22;15732;48.534;20.382;2022-12-16T17:30:47;3.20;99.90
28520;DHT22;15732;48.534;20.382;2022-12-16T17:33:32;3.20;99.90
28520;DHT22;15732;48.534;20.382;2022-12-16T17:36:17;3.20;99.90
28520;DHT22;15732;48.534;20.382;2022-12-16T17:39:03;3.20;99.90
28520;DHT22;15732;48.534;20.382;2022-12-16T17:41:48;3.20;99.90
28520;DHT22;15732;48.534;20.382;2022-12-16T17:44:34;3.30;99.90
28520;DHT22;15732;48.534;20.382;2022-12-16T17:47:19;3.20;99.90
28520;DHT22;15732;48.534;20.382;2022-12-16T17:50:05;3.30;99.90
28520;DHT22;15732;48.534;20.382;2022-12-16T17:52:56;3.30;99.90
28520;DHT22;15732;48.534;20.382;2022-12-16T17:55:41;3.20;99.90
28520;DHT22;15732;48.534;20.382;2022-12-16T17:58:35;3.30;99.90
28520;DHT22;15732;48.534;20.382;2022-12-16T18:01:20;3.30;99.90
28520;DHT22;15732;48.534;20.382;2022-12-16T18:04:06;3.30;99.90
28520;DHT22;15732;48.534;20.382;2022-12-16T18:06:52;3.30;99.90
28520;DHT22;15732;48.534;20.382;2022-12-16T18:09:37;3.30;99.90
28520;DHT22;15732;48.534;20.382;2022-12-16T18:12:23;3.30;99.90
28520;DHT22;15732;48.534;20.382;2022-12-16T18:15:08;3.20;99.90
28520;DHT22;15732;48.534;20.382;2022-12-16T18:17:54;3.20;99.90
28520;DHT22;15732;48.534;20.382;2022-12-16T18:20:39;3.20;99.90
28520;DHT22;15732;48.534;20.382;2022-12-16T18:23:28;3.30;99.90
28520;DHT22;15732;48.534;20.382;2022-12-16T18:26:14;3.30;99.90
28520;DHT22;15732;48.534;20.382;2022-12-16T18:28:59;3.30;99.90
28520;DHT22;15732;48.534;20.382;2022-12-16T18:31:47;3.30;99.90
28520;DHT22;15732;48.534;20.382;2022-12-16T18:34:32;3.30;99.90
28520;DHT22;15732;48.534;20.382;2022-12-16T18:37:17;3.30;99.90
28520;DHT22;15732;48.534;20.382;2022-12-16T18:40:03;3.20;99.90
28520;DHT22;15732;48.534;20.382;2022-12-16T18:42:49;3.10;99.90
28520;DHT22;15732;48.534;20.382;2022-12-16T18:45:35;3.20;99.90
28520;DHT22;15732;48.534;20.382;2022-12-16T18:48:20;3.10;99.90
28520;DHT22;15732;48.534;20.382;2022-12-16T18:51:06;3.10;99.90
28520;DHT22;15732;48.534;20.382;2022-12-16T18:53:51;3.10;99.90
28520;DHT22;15732;48.534;20.382;2022-12-16T18:56:37;3.00;99.90
28520;DHT22;15732;48.534;20.382;2022-12-16T18:59:23;3.00;99.90
28520;DHT22;15732;48.534;20.382;2022-12-16T19:02:08;3.00;99.90
28520;DHT22;15732;48.534;20.382;2022-12-16T19:04:53;3.00;99.90
28520;DHT22;15732;48.534;20.382;2022-12-16T19:07:39;3.10;99.90
28520;DHT22;15732;48.534;20.382;2022-12-16T19:10:24;3.10;99.90
28520;DHT22;15732;48.534;20.382;2022-12-16T19:13:16;3.20;99.90